createdAt,value
2018-09-23T00:02:01.309Z,49.6
2018-09-23T00:06:58.076Z,49.6
2018-09-23T00:11:54.651Z,49.8
2018-09-23T00:16:51.336Z,49.8
2018-09-23T00:21:48.004Z,50.1
2018-09-23T00:26:44.812Z,50.2
2018-09-23T00:31:41.554Z,50.3
2018-09-23T00:36:38.221Z,50.5
2018-09-23T00:41:34.955Z,50.6
2018-09-23T00:46:31.625Z,50.7
2018-09-23T00:51:28.344Z,50.7
2018-09-23T00:56:24.888Z,50.6
2018-09-23T01:01:21.705Z,50.5
2018-09-23T01:06:18.462Z,50.6
2018-09-23T01:11:15.106Z,50.5
2018-09-23T01:16:11.819Z,50.4
2018-09-23T01:21:08.557Z,50.3
2018-09-23T01:26:05.380Z,50.3
2018-09-23T01:31:01.804Z,50.2
2018-09-23T01:35:58.406Z,50.2
2018-09-23T01:40:55.074Z,50.2
2018-09-23T01:45:51.622Z,50.4
2018-09-23T01:50:48.196Z,50.5
2018-09-23T01:55:44.967Z,50.6
2018-09-23T02:00:41.685Z,50.9
2018-09-23T02:05:38.505Z,50.8
2018-09-23T02:10:35.183Z,50.8
2018-09-23T02:15:31.948Z,50.8
2018-09-23T02:20:28.687Z,50.8
2018-09-23T02:25:25.304Z,50.7
2018-09-23T02:30:22.066Z,50.8
2018-09-23T02:35:18.733Z,50.7
2018-09-23T02:40:15.519Z,50.6
2018-09-23T02:45:12.212Z,50.7
2018-09-23T02:50:08.948Z,50.6
2018-09-23T02:55:05.615Z,50.5
2018-09-23T03:00:02.291Z,50.4
2018-09-23T03:04:58.982Z,50.5
2018-09-23T03:09:55.570Z,50.5
2018-09-23T03:14:52.178Z,50.5
2018-09-23T03:19:49.156Z,50.5
2018-09-23T03:24:46.363Z,50.7
2018-09-23T03:29:42.913Z,50.5
2018-09-23T03:34:39.079Z,50.4
2018-09-23T03:39:35.659Z,50.3
2018-09-23T03:44:32.773Z,50.2
2018-09-23T03:49:29.317Z,50.2
2018-09-23T03:54:25.786Z,50.2
2018-09-23T03:59:22.583Z,50.2
2018-09-23T04:04:19.121Z,50.4
2018-09-23T05:04:02.021Z,50.4
2018-09-23T05:08:58.002Z,50.2
2018-09-23T05:13:54.711Z,50.2
2018-09-23T05:18:51.351Z,50.2
2018-09-23T05:23:48.080Z,50.2
2018-09-23T05:28:44.490Z,50.5
2018-09-23T05:33:41.292Z,50.5
2018-09-23T05:38:37.942Z,50.5
2018-09-23T05:43:35.782Z,50.2
2018-09-23T05:48:32.578Z,49.2
2018-09-23T05:53:29.554Z,48.6
2018-09-23T05:58:26.441Z,48.7
2018-09-23T06:03:23.270Z,49.1
2018-09-23T06:08:20.035Z,48.9
2018-09-23T06:13:16.669Z,49.8
2018-09-23T06:18:14.879Z,50.2
2018-09-23T06:23:11.895Z,50.5
2018-09-23T06:28:08.563Z,50.9
2018-09-23T06:33:07.451Z,51
2018-09-23T06:38:03.914Z,51.6
2018-09-23T06:43:01.351Z,52
2018-09-23T06:47:58.494Z,51.9
2018-09-23T06:52:55.528Z,52.2
2018-09-23T06:57:52.578Z,51.5
2018-09-23T07:02:49.643Z,51.5
2018-09-23T07:07:46.898Z,51.2
2018-09-23T07:12:43.747Z,50.8
2018-09-23T07:17:40.508Z,50.6
2018-09-23T07:22:37.492Z,50.3
2018-09-23T07:27:34.216Z,50.1
2018-09-23T07:32:31.358Z,49.9
2018-09-23T07:37:28.222Z,50
2018-09-23T07:42:25.541Z,49.8
2018-09-23T07:47:22.299Z,49.2
2018-09-23T07:52:21.250Z,49.5
2018-09-23T07:57:18.004Z,49.5
2018-09-23T08:02:14.048Z,49.3
2018-09-23T08:07:10.947Z,49.1
2018-09-23T08:12:07.785Z,49.1
2018-09-23T08:17:04.909Z,49.1
2018-09-23T08:22:02.074Z,48.9
2018-09-23T08:26:58.913Z,48.9
2018-09-23T08:31:56.365Z,49
2018-09-23T08:36:52.708Z,49
2018-09-23T08:41:49.834Z,49.5
2018-09-23T08:46:46.877Z,49.2
2018-09-23T08:51:44.119Z,48.9
2018-09-23T08:56:41.214Z,48.8
2018-09-23T09:01:38.285Z,48.9
2018-09-23T09:06:34.973Z,48.9
2018-09-23T09:11:32.084Z,48.9
2018-09-23T09:16:29.806Z,48.9
2018-09-23T09:21:26.568Z,49
2018-09-23T09:26:23.309Z,48.8
2018-09-23T09:31:20.385Z,48.8
2018-09-23T09:36:17.026Z,48.8
2018-09-23T09:41:13.978Z,48.9
2018-09-23T09:46:11.037Z,48.6
2018-09-23T09:51:08.134Z,48.6
2018-09-23T09:56:05.572Z,48.7
2018-09-23T10:01:02.708Z,48.8
2018-09-23T10:05:59.885Z,48.7
2018-09-23T10:10:58.409Z,48.7
2018-09-23T10:15:56.811Z,48.6
2018-09-23T10:20:54.443Z,48.3
2018-09-23T10:25:51.401Z,48.5
2018-09-23T10:30:48.491Z,48.6
2018-09-23T10:35:45.450Z,48.9
2018-09-23T10:40:42.589Z,48.9
2018-09-23T10:45:40.686Z,49
2018-09-23T10:50:37.779Z,48.7
2018-09-23T10:55:34.785Z,48.5
2018-09-23T11:00:31.422Z,48.1
2018-09-23T11:05:30.889Z,47.7
2018-09-23T11:10:27.766Z,47.5
2018-09-23T11:15:29.926Z,47.2
2018-09-23T11:20:26.335Z,46.7
2018-09-23T11:25:23.264Z,46.1
2018-09-23T11:30:20.161Z,46.3
2018-09-23T11:35:16.686Z,45.6
2018-09-23T11:40:12.942Z,45.8
2018-09-23T11:45:09.973Z,46.4
2018-09-23T11:50:10.946Z,46.2
2018-09-23T11:55:07.028Z,46.2
2018-09-23T12:00:05.081Z,45.6
2018-09-23T12:05:01.666Z,45.7
2018-09-23T12:09:59.067Z,45
2018-09-23T12:14:56.190Z,45.2
2018-09-23T12:19:53.088Z,45.8
2018-09-23T12:24:50.608Z,46
2018-09-23T12:29:47.969Z,46.2
2018-09-23T12:34:44.814Z,45.8
2018-09-23T12:39:42.009Z,45.4
2018-09-23T12:44:40.504Z,45.8
2018-09-23T12:49:38.154Z,45.5
2018-09-23T12:54:35.230Z,45.7
2018-09-23T12:59:32.298Z,45.6
2018-09-23T13:04:29.263Z,45.5
2018-09-23T13:09:26.190Z,45.3
2018-09-23T13:14:22.866Z,44.8
2018-09-23T13:19:19.999Z,44.1
2018-09-23T13:24:16.760Z,44.1
2018-09-23T13:29:13.558Z,44
2018-09-23T13:34:10.807Z,43.8
2018-09-23T13:39:07.961Z,43
2018-09-23T13:44:06.634Z,41.9
2018-09-23T13:49:03.303Z,42
2018-09-23T13:53:59.768Z,41.2
2018-09-23T13:58:56.676Z,41.8
2018-09-23T14:03:54.382Z,41.7
2018-09-23T14:08:51.194Z,41.9
2018-09-23T14:13:48.446Z,41.6
2018-09-23T14:18:45.550Z,41.7
2018-09-23T14:23:42.904Z,41.6
2018-09-23T14:28:39.906Z,41.5
2018-09-23T14:33:37.003Z,41.5
2018-09-23T14:38:33.802Z,42.5
2018-09-23T14:43:30.764Z,43.2
2018-09-23T14:48:27.724Z,43.6
2018-09-23T14:53:24.740Z,44.3
2018-09-23T14:58:21.755Z,44
2018-09-23T15:03:20.054Z,43.9
2018-09-23T15:08:17.486Z,43.6
2018-09-23T15:13:14.533Z,43.6
2018-09-23T15:18:11.546Z,43.5
2018-09-23T15:23:08.327Z,43.5
2018-09-23T15:28:05.356Z,43.4
2018-09-23T15:33:02.205Z,43.4
2018-09-23T15:37:59.365Z,43.4
2018-09-23T15:42:56.428Z,43.4
2018-09-23T15:47:53.385Z,43.4
2018-09-23T15:52:50.132Z,43.5
2018-09-23T15:57:47.268Z,43.5
2018-09-23T16:02:44.216Z,43.5
2018-09-23T16:07:41.228Z,43.4
2018-09-23T16:12:38.080Z,43.3
2018-09-23T16:17:35.090Z,43.3
2018-09-23T16:22:31.722Z,43.2
2018-09-23T16:27:28.496Z,43.1
2018-09-23T16:32:25.376Z,43.1
2018-09-23T16:37:22.216Z,43.1
2018-09-23T16:42:18.995Z,43.1
2018-09-23T16:47:16.111Z,43.1
2018-09-23T16:52:12.918Z,43.2
2018-09-23T16:57:09.912Z,43.2
2018-09-23T17:02:06.891Z,43.2
2018-09-23T17:07:03.582Z,43.2
2018-09-23T17:12:00.639Z,43.1
2018-09-23T17:16:57.490Z,43.1
2018-09-23T17:21:54.322Z,43.1
2018-09-23T17:26:51.137Z,43.1
2018-09-23T17:31:48.166Z,43.1
2018-09-23T17:36:45.317Z,43.1
2018-09-23T17:41:42.183Z,43.2
2018-09-23T17:46:39.359Z,43.2
2018-09-23T17:51:36.372Z,43.2
2018-09-23T17:56:33.179Z,43.2
2018-09-23T18:01:30.364Z,43.1
2018-09-23T18:06:27.666Z,43.1
2018-09-23T18:11:24.607Z,43.1
2018-09-23T18:16:21.540Z,43.1
2018-09-23T18:21:18.906Z,43.1
2018-09-23T18:26:16.065Z,43.1
2018-09-23T18:31:12.791Z,43.2
2018-09-23T18:36:09.655Z,43.2
2018-09-23T18:41:06.601Z,43.2
2018-09-23T18:46:03.755Z,43.2
2018-09-23T18:51:00.485Z,43.2
2018-09-23T18:55:57.097Z,43.2
2018-09-23T19:00:54.457Z,43.2
2018-09-23T19:05:51.401Z,43.2
2018-09-23T19:10:48.396Z,43.2
2018-09-23T19:15:45.389Z,43.2
2018-09-23T19:20:42.333Z,43.2
2018-09-23T19:25:39.198Z,43.3
2018-09-23T19:30:36.031Z,43.3
2018-09-23T19:35:32.952Z,43.3
2018-09-23T19:40:29.783Z,43.4
2018-09-23T19:45:26.888Z,43.4
2018-09-23T19:50:23.871Z,43.4
2018-09-23T19:55:20.671Z,43.4
2018-09-23T20:00:17.394Z,43.5
2018-09-23T20:05:14.626Z,43.5
2018-09-23T20:10:11.660Z,43.5
2018-09-23T20:15:08.551Z,43.5
2018-09-23T20:20:05.418Z,43.5
2018-09-23T20:25:02.204Z,43.6
2018-09-23T20:29:58.915Z,43.6
2018-09-23T20:34:55.870Z,43.6
2018-09-23T20:39:52.887Z,43.6
2018-09-23T20:44:49.771Z,43.6
2018-09-23T20:49:46.786Z,43.6
2018-09-23T20:54:43.692Z,43.6
2018-09-23T20:59:40.456Z,43.7
2018-09-23T21:04:37.266Z,43.7
2018-09-23T21:09:34.046Z,43.7
2018-09-23T21:14:30.958Z,43.7
2018-09-23T21:19:27.368Z,43.8
2018-09-23T21:24:24.003Z,43.8
2018-09-23T21:29:20.491Z,43.9
2018-09-23T21:34:16.530Z,43.9
2018-09-23T21:39:13.612Z,43.8
2018-09-23T21:44:10.143Z,43.8
2018-09-23T21:49:06.687Z,43.9
2018-09-23T21:54:03.581Z,43.9
2018-09-23T21:59:00.363Z,43.9
2018-09-23T22:03:57.191Z,43.9
2018-09-23T22:08:53.970Z,44
2018-09-23T22:13:50.736Z,44
2018-09-23T22:18:47.753Z,44.1
2018-09-23T22:23:44.636Z,44.1
2018-09-23T22:28:40.666Z,44.1
2018-09-23T22:33:37.607Z,44.1
2018-09-23T22:38:34.416Z,44.1
2018-09-23T22:43:31.163Z,44.1
2018-09-23T22:48:27.935Z,44.2
2018-09-23T22:53:24.790Z,44.2
2018-09-23T22:58:21.683Z,44.3
2018-09-23T23:03:17.809Z,44.3
2018-09-23T23:08:14.340Z,44.3
2018-09-23T23:13:11.174Z,44.4
2018-09-23T23:18:07.949Z,44.4
2018-09-23T23:23:04.830Z,44.5
2018-09-23T23:28:01.651Z,44.4
2018-09-23T23:32:58.557Z,44.4
2018-09-23T23:37:55.253Z,44.4
2018-09-23T23:42:52.259Z,44.5
2018-09-23T23:47:49.191Z,44.5
2018-09-23T23:52:46.142Z,44.5
2018-09-23T23:57:42.817Z,44.6
